CheckWX is a tool to help pilots better visualize weather data.  It is not intended as a substitute for an official pre-flight weather briefing.

13:30:57 UTC

KMXF METAR
Maxwell AFB Airport
Montgomery, Alabama, USA
Current

35 mins ago

KMXF 181256Z AUTO 08003KT 10SM SCT009 26/24 A3000 RMK AO2 SLP160 T02600236
Observed
Aug-18 @ 12:56 UTC
Wind
  • 080° at 3 KTS
Visibility
10 SM
Flight Rules
VFR
Cloud Levels
  • Scattered at 900' AGL
Temperature
26°C / 79°F
Dewpoint
24°C / 75°F
Humidity
89%
Altimeter
30" Hg
Pressure
1015.92 hPa
Previous

2 hours ago

KMXF 181156Z AUTO 00000KT 10SM CLR 24/23 A2997 RMK AO2 SLP150 T02400233 10257 20231 53002
Observed
Aug-18 @ 11:56 UTC
Visibility
10 SM
Flight Rules
VFR
Cloud Levels
  • Clear skies
Temperature
24°C / 75°F
Dewpoint
23°C / 73°F
Humidity
94%
Altimeter
29.97" Hg
Pressure
1014.92 hPa
Previous

3 hours ago

KMXF 181056Z AUTO 00000KT 10SM CLR 23/23 A2997 RMK AO2 SLP150 T02340229
Observed
Aug-18 @ 10:56 UTC
Visibility
10 SM
Flight Rules
VFR
Cloud Levels
  • Clear skies
Temperature
23°C / 73°F
Dewpoint
23°C / 73°F
Humidity
100%
Altimeter
29.97" Hg
Pressure
1014.92 hPa